createdAt,value
2019-02-18T00:01:23.856Z,101268.13
2019-02-18T00:03:51.273Z,101267.37
2019-02-18T00:06:18.874Z,101267.49
2019-02-18T00:08:46.387Z,101262.50
2019-02-18T00:11:13.258Z,101274.04
2019-02-18T00:13:41.368Z,101272.15
2019-02-18T00:16:09.010Z,101272.79
2019-02-18T00:18:36.266Z,101274.20
2019-02-18T00:21:03.602Z,101266.03
2019-02-18T00:23:32.229Z,101264.39
2019-02-18T00:25:59.646Z,101261.84
2019-02-18T00:28:27.010Z,101264.55
2019-02-18T00:30:54.690Z,101266.30
2019-02-18T00:33:22.041Z,101265.54
2019-02-18T00:35:49.162Z,101261.36
2019-02-18T00:38:16.630Z,101258.23
2019-02-18T00:40:44.089Z,101262.72
2019-02-18T00:43:10.774Z,101259.61
2019-02-18T00:45:37.609Z,101260.45
2019-02-18T00:48:04.979Z,101258.20
2019-02-18T00:50:32.169Z,101251.00
2019-02-18T00:52:59.736Z,101258.75
2019-02-18T00:55:26.457Z,101250.46
2019-02-18T00:57:53.954Z,101250.73
2019-02-18T01:00:20.730Z,101253.83
2019-02-18T01:02:47.698Z,101256.80
2019-02-18T01:05:15.478Z,101253.05
2019-02-18T01:07:42.634Z,101256.53
2019-02-18T01:10:09.985Z,101259.57
2019-02-18T01:12:37.298Z,101257.61
2019-02-18T01:15:05.822Z,101258.03
2019-02-18T01:17:33.084Z,101257.93
2019-02-18T01:20:00.357Z,101257.16
2019-02-18T01:22:27.571Z,101253.93
2019-02-18T01:24:54.886Z,101255.26
2019-02-18T01:27:22.607Z,101262.59
2019-02-18T01:29:49.290Z,101258.30
2019-02-18T01:32:16.357Z,101252.41
2019-02-18T01:34:44.588Z,101242.70
2019-02-18T01:37:11.619Z,101246.73
2019-02-18T01:39:38.561Z,101248.06
2019-02-18T01:42:05.854Z,101253.80
2019-02-18T01:44:33.616Z,101253.64
2019-02-18T01:47:01.108Z,101252.02
2019-02-18T01:49:28.972Z,101251.02
2019-02-18T01:51:56.008Z,101247.70
2019-02-18T01:54:22.682Z,101239.36
2019-02-18T01:56:49.839Z,101244.36
2019-02-18T01:59:17.282Z,101238.23
2019-02-18T02:01:44.319Z,101243.00
2019-02-18T02:04:11.973Z,101239.48
2019-02-18T02:06:39.630Z,101236.39
2019-02-18T02:09:10.600Z,101233.87
2019-02-18T02:11:37.963Z,101231.91
2019-02-18T02:14:05.066Z,101232.73
2019-02-18T02:16:32.234Z,101232.27
2019-02-18T02:18:58.932Z,101232.92
2019-02-18T02:21:26.527Z,101232.92
2019-02-18T02:23:53.658Z,101227.05
2019-02-18T02:26:20.851Z,101221.12
2019-02-18T02:28:48.290Z,101226.12
2019-02-18T02:31:15.500Z,101230.22
2019-02-18T02:33:43.010Z,101228.11
2019-02-18T02:36:10.591Z,101224.92
2019-02-18T02:38:38.141Z,101232.40
2019-02-18T02:41:04.927Z,101235.42
2019-02-18T02:43:31.726Z,101231.77
2019-02-18T02:45:58.724Z,101232.36
2019-02-18T02:48:26.406Z,101230.83
2019-02-18T02:50:53.217Z,101224.81
2019-02-18T02:53:20.280Z,101234.14
2019-02-18T02:55:48.277Z,101228.05
2019-02-18T02:58:14.992Z,101217.47
2019-02-18T03:00:41.929Z,101222.23
2019-02-18T03:03:08.713Z,101221.73
2019-02-18T03:05:36.355Z,101217.72
2019-02-18T03:08:03.730Z,101222.98
2019-02-18T03:10:31.569Z,101226.42
2019-02-18T03:12:58.865Z,101226.09
2019-02-18T03:15:26.123Z,101218.55
2019-02-18T03:17:53.442Z,101214.38
2019-02-18T03:20:20.398Z,101212.69
2019-02-18T03:22:48.324Z,101217.01
2019-02-18T03:25:19.761Z,101216.76
2019-02-18T03:28:03.412Z,101219.38
2019-02-18T03:30:42.896Z,101213.03
2019-02-18T03:33:11.024Z,101218.38
2019-02-18T03:35:39.110Z,101217.64
2019-02-18T03:38:06.775Z,101221.00
2019-02-18T03:40:34.025Z,101217.73
2019-02-18T03:43:00.955Z,101212.38
2019-02-18T03:45:28.325Z,101213.33
2019-02-18T03:47:55.127Z,101213.75
2019-02-18T03:50:21.918Z,101207.03
2019-02-18T03:52:48.621Z,101205.95
2019-02-18T03:55:15.911Z,101209.89
2019-02-18T03:57:43.342Z,101205.73
2019-02-18T04:00:10.289Z,101203.67
2019-02-18T04:02:37.349Z,101204.79
2019-02-18T04:05:05.631Z,101193.09
2019-02-18T04:07:33.392Z,101195.92
2019-02-18T04:10:00.426Z,101191.12
2019-02-18T04:12:27.467Z,101187.75
2019-02-18T04:14:55.754Z,101187.66
2019-02-18T04:17:22.543Z,101193.18
2019-02-18T04:19:50.054Z,101196.05
2019-02-18T04:22:17.191Z,101198.83
2019-02-18T04:24:45.388Z,101201.43
2019-02-18T04:27:12.526Z,101202.84
2019-02-18T04:29:39.786Z,101209.06
2019-02-18T04:32:07.838Z,101214.95
2019-02-18T04:34:35.689Z,101212.66
2019-02-18T04:37:03.607Z,101212.13
2019-02-18T04:39:30.899Z,101208.30
2019-02-18T04:41:57.610Z,101215.18
2019-02-18T04:44:24.315Z,101214.09
2019-02-18T04:46:51.466Z,101214.09
2019-02-18T04:49:18.806Z,101210.75
2019-02-18T04:51:46.299Z,101203.58
2019-02-18T04:54:13.741Z,101206.06
2019-02-18T04:56:41.196Z,101199.34
2019-02-18T04:59:09.043Z,101198.31
2019-02-18T05:01:37.480Z,101200.23
2019-02-18T05:04:06.050Z,101203.17
2019-02-18T05:06:34.160Z,101192.31
2019-02-18T05:09:05.367Z,101193.56
2019-02-18T05:11:34.068Z,101190.33
2019-02-18T05:14:01.579Z,101191.59
2019-02-18T05:16:28.729Z,101188.66
2019-02-18T05:18:55.454Z,101187.19
2019-02-18T05:21:23.428Z,101188.38
2019-02-18T05:23:50.693Z,101182.03
2019-02-18T05:26:18.030Z,101185.97
2019-02-18T05:28:45.075Z,101189.05
2019-02-18T05:31:12.436Z,101190.03
2019-02-18T05:33:39.843Z,101190.41
2019-02-18T05:36:07.242Z,101189.16
2019-02-18T05:38:34.403Z,101198.30
2019-02-18T05:41:01.889Z,101195.89
2019-02-18T05:43:29.727Z,101203.94
2019-02-18T05:45:57.286Z,101195.33
2019-02-18T05:48:24.326Z,101194.22
2019-02-18T05:50:52.115Z,101195.96
2019-02-18T05:53:19.348Z,101191.15
2019-02-18T05:55:46.807Z,101192.89
2019-02-18T05:58:13.488Z,101188.08
2019-02-18T06:00:41.636Z,101194.00
2019-02-18T06:03:09.047Z,101187.89
2019-02-18T06:05:36.126Z,101187.52
2019-02-18T06:08:04.192Z,101187.84
2019-02-18T06:10:31.281Z,101180.92
2019-02-18T06:12:58.270Z,101174.48
2019-02-18T06:15:25.493Z,101185.75
2019-02-18T06:17:53.038Z,101192.67
2019-02-18T06:20:20.005Z,101197.72
2019-02-18T06:22:47.194Z,101202.25
2019-02-18T06:25:13.973Z,101199.84
2019-02-18T06:27:41.370Z,101199.92
2019-02-18T06:30:08.504Z,101199.36
2019-02-18T06:32:36.710Z,101199.86
2019-02-18T06:35:04.699Z,101203.80
2019-02-18T06:37:31.713Z,101203.09
2019-02-18T06:39:58.407Z,101201.55
2019-02-18T06:42:26.142Z,101210.08
2019-02-18T06:44:58.653Z,101209.29
2019-02-18T06:47:27.696Z,101204.95
2019-02-18T06:49:55.250Z,101209.97
2019-02-18T06:52:22.314Z,101209.23
2019-02-18T06:54:49.529Z,101215.69
2019-02-18T06:57:48.622Z,101218.48
2019-02-18T07:00:41.512Z,101219.64
2019-02-18T07:03:18.485Z,101222.20
2019-02-18T07:05:56.397Z,101225.45
2019-02-18T07:08:43.082Z,101226.53
2019-02-18T07:11:31.958Z,101235.08
2019-02-18T07:13:58.975Z,101233.30
2019-02-18T07:16:26.259Z,101226.22
2019-02-18T07:18:54.408Z,101229.63
2019-02-18T07:21:24.175Z,101229.79
2019-02-18T07:23:51.548Z,101230.53
2019-02-18T07:26:18.653Z,101233.02
2019-02-18T07:28:46.200Z,101237.09
2019-02-18T07:31:13.155Z,101235.12
2019-02-18T07:33:40.612Z,101231.23
2019-02-18T07:36:08.255Z,101229.83
2019-02-18T07:38:36.338Z,101230.75
2019-02-18T07:41:03.785Z,101222.66
2019-02-18T07:43:31.214Z,101223.53
2019-02-18T07:45:57.892Z,101224.27
2019-02-18T07:48:25.434Z,101226.22
2019-02-18T07:50:52.505Z,101226.30
2019-02-18T07:53:20.449Z,101227.38
2019-02-18T07:55:47.806Z,101227.32
2019-02-18T07:58:15.786Z,101230.72
2019-02-18T08:00:42.909Z,101230.39
2019-02-18T08:03:09.681Z,101224.70
2019-02-18T08:05:37.085Z,101227.75
2019-02-18T08:08:03.754Z,101231.70
2019-02-18T08:10:30.488Z,101230.41
2019-02-18T08:12:57.160Z,101232.20
2019-02-18T08:15:24.395Z,101232.25
2019-02-18T08:17:51.221Z,101234.27
2019-02-18T08:20:18.555Z,101240.03
2019-02-18T08:22:46.053Z,101239.58
2019-02-18T08:25:13.311Z,101242.42
2019-02-18T08:27:41.053Z,101239.43
2019-02-18T08:30:10.117Z,101234.65
2019-02-18T08:32:37.389Z,101242.34
2019-02-18T08:35:04.294Z,101240.64
2019-02-18T08:37:33.000Z,101239.61
2019-02-18T08:39:59.671Z,101237.78
2019-02-18T08:42:26.355Z,101238.25
2019-02-18T08:44:53.600Z,101239.88
2019-02-18T08:47:20.384Z,101242.53
2019-02-18T08:49:47.763Z,101240.34
2019-02-18T08:52:15.445Z,101241.21
2019-02-18T08:54:43.802Z,101232.39
2019-02-18T08:57:10.601Z,101225.05
2019-02-18T08:59:38.618Z,101225.69
2019-02-18T09:02:06.174Z,101222.47
2019-02-18T09:04:33.954Z,101219.23
2019-02-18T09:07:01.507Z,101228.48
2019-02-18T09:09:30.176Z,101222.48
2019-02-18T09:11:57.853Z,101222.97
2019-02-18T09:14:24.989Z,101227.73
2019-02-18T09:16:52.410Z,101226.58
2019-02-18T09:19:19.480Z,101227.20
2019-02-18T09:21:48.362Z,101218.80
2019-02-18T09:24:20.251Z,101221.52
2019-02-18T09:26:47.354Z,101218.45
2019-02-18T09:29:14.950Z,101217.03
2019-02-18T09:31:43.051Z,101214.86
2019-02-18T09:34:10.173Z,101212.41
2019-02-18T09:36:37.122Z,101208.49
2019-02-18T09:39:11.345Z,101210.95
2019-02-18T09:41:38.912Z,101205.86
2019-02-18T09:44:05.697Z,101203.28
2019-02-18T09:46:32.947Z,101205.51
2019-02-18T09:49:00.457Z,101203.54
2019-02-18T09:51:28.308Z,101201.19
2019-02-18T09:53:55.253Z,101200.27
2019-02-18T09:56:22.046Z,101194.52
2019-02-18T09:58:50.285Z,101196.05
2019-02-18T10:01:17.127Z,101193.86
2019-02-18T10:03:44.684Z,101187.65
2019-02-18T10:06:11.462Z,101193.46
2019-02-18T10:08:38.155Z,101187.94
2019-02-18T10:11:05.820Z,101185.14
2019-02-18T10:13:32.498Z,101185.14
2019-02-18T10:15:59.390Z,101179.56
2019-02-18T10:18:26.947Z,101177.12
2019-02-18T10:20:54.728Z,101181.36
2019-02-18T10:23:22.583Z,101182.47
2019-02-18T10:25:49.940Z,101182.37
2019-02-18T10:28:16.642Z,101177.40
2019-02-18T10:30:43.694Z,101183.09
2019-02-18T10:33:10.702Z,101176.78
2019-02-18T10:35:37.720Z,101180.31
2019-02-18T10:38:04.676Z,101173.34
2019-02-18T10:40:31.922Z,101173.34
2019-02-18T10:42:59.375Z,101169.29
2019-02-18T10:45:27.091Z,101166.97
2019-02-18T10:47:55.205Z,101158.63
2019-02-18T10:50:22.668Z,101158.44
2019-02-18T10:52:50.113Z,101150.41
2019-02-18T10:55:17.348Z,101154.10
2019-02-18T10:57:44.833Z,101141.69
2019-02-18T11:00:12.418Z,101147.11
2019-02-18T11:02:40.462Z,101148.09
2019-02-18T11:05:08.088Z,101153.66
2019-02-18T11:07:35.574Z,101145.17
2019-02-18T11:10:03.260Z,101134.91
2019-02-18T11:12:30.802Z,101133.13
2019-02-18T11:14:58.372Z,101133.28
2019-02-18T11:17:25.155Z,101128.47
2019-02-18T11:19:52.482Z,101116.80
2019-02-18T11:22:19.577Z,101113.45
2019-02-18T11:24:46.445Z,101112.56
2019-02-18T11:27:13.599Z,101106.47
2019-02-18T11:29:40.916Z,101113.88
2019-02-18T11:32:08.498Z,101106.95
2019-02-18T11:34:36.277Z,101108.68
2019-02-18T11:37:03.500Z,101105.09
2019-02-18T11:39:30.550Z,101092.30
2019-02-18T11:41:57.591Z,101092.30
2019-02-18T11:44:24.957Z,101094.37
2019-02-18T11:46:52.482Z,101092.12
2019-02-18T11:49:19.644Z,101084.55
2019-02-18T11:51:46.963Z,101079.31
2019-02-18T11:54:14.467Z,101082.34
2019-02-18T11:56:41.947Z,101077.16
2019-02-18T11:59:08.639Z,101080.36
2019-02-18T12:01:36.042Z,101078.76
2019-02-18T12:04:02.885Z,101079.84
2019-02-18T12:06:30.754Z,101083.16
2019-02-18T12:08:57.464Z,101082.84
2019-02-18T12:11:24.446Z,101080.80
2019-02-18T12:13:51.814Z,101082.47
2019-02-18T12:16:19.051Z,101081.97
2019-02-18T12:18:45.718Z,101077.70
2019-02-18T12:21:12.833Z,101080.50
2019-02-18T12:23:41.211Z,101070.63
2019-02-18T12:26:09.074Z,101058.06
2019-02-18T12:28:36.314Z,101054.73
2019-02-18T12:31:03.422Z,101050.22
2019-02-18T12:33:31.399Z,101042.45
2019-02-18T12:35:58.567Z,101035.00
2019-02-18T12:38:25.352Z,101029.30
2019-02-18T12:40:52.050Z,101025.11
2019-02-18T12:43:19.743Z,101028.64
2019-02-18T12:45:46.427Z,101026.75
2019-02-18T12:48:13.474Z,101026.90
2019-02-18T12:50:40.249Z,101016.63
2019-02-18T12:53:07.483Z,101020.98
2019-02-18T12:55:35.039Z,101018.66
2019-02-18T12:58:02.041Z,100996.45
2019-02-18T13:00:29.281Z,101005.36
2019-02-18T13:02:56.443Z,101000.30
2019-02-18T13:05:23.648Z,100996.75
2019-02-18T13:07:51.377Z,100996.61
2019-02-18T13:10:19.161Z,100997.69
2019-02-18T13:12:46.434Z,101005.20
2019-02-18T13:15:13.251Z,100997.05
2019-02-18T13:17:42.823Z,100994.62
2019-02-18T13:20:11.452Z,100993.21
2019-02-18T13:22:38.129Z,100991.53
2019-02-18T13:25:05.260Z,100984.91
2019-02-18T13:27:32.038Z,100982.81
2019-02-18T13:29:58.953Z,100981.69
2019-02-18T13:32:26.729Z,100973.15
2019-02-18T13:34:53.983Z,100977.98
2019-02-18T13:37:21.129Z,100972.53
2019-02-18T13:39:47.922Z,100970.67
2019-02-18T13:42:14.638Z,100967.16
2019-02-18T13:44:41.933Z,100968.04
2019-02-18T13:47:08.686Z,100968.45
2019-02-18T13:49:36.053Z,100968.10
2019-02-18T13:52:03.135Z,100962.87
2019-02-18T13:54:30.058Z,100962.86
2019-02-18T13:56:57.190Z,100956.99
2019-02-18T13:59:24.442Z,100960.52
2019-02-18T14:01:51.921Z,100958.33
2019-02-18T14:04:18.914Z,100961.88
2019-02-18T14:06:45.694Z,100955.90
2019-02-18T14:09:13.526Z,100947.97
2019-02-18T14:11:40.326Z,100954.50
2019-02-18T14:14:07.881Z,100953.52
2019-02-18T14:16:34.677Z,100951.48
2019-02-18T14:19:02.322Z,100951.63
2019-02-18T14:21:29.027Z,100957.50
2019-02-18T14:23:56.466Z,100948.49
2019-02-18T14:26:24.646Z,100947.30
2019-02-18T14:28:52.273Z,100947.61
2019-02-18T14:31:19.355Z,100954.05
2019-02-18T14:33:47.411Z,100951.50
2019-02-18T14:36:14.507Z,100949.42
2019-02-18T14:38:41.744Z,100952.37
2019-02-18T14:41:11.005Z,100948.78
2019-02-18T14:43:38.115Z,100944.92
2019-02-18T14:46:07.476Z,100940.09
2019-02-18T14:48:48.512Z,100938.14
2019-02-18T14:51:16.208Z,100945.48
2019-02-18T14:53:43.374Z,100932.53
2019-02-18T14:56:14.406Z,100932.61
2019-02-18T14:58:41.639Z,100931.80
2019-02-18T15:01:09.095Z,100925.05
2019-02-18T15:03:36.741Z,100921.14
2019-02-18T15:06:03.899Z,100921.45
2019-02-18T15:08:31.433Z,100917.88
2019-02-18T15:10:58.412Z,100917.94
2019-02-18T15:13:25.510Z,100915.35
2019-02-18T15:15:52.728Z,100914.70
2019-02-18T15:18:19.943Z,100905.08
2019-02-18T15:20:47.189Z,100903.80
2019-02-18T15:23:14.558Z,100906.27
2019-02-18T15:25:41.600Z,100898.63
2019-02-18T15:28:08.386Z,100894.14
2019-02-18T15:30:35.529Z,100897.91
2019-02-18T15:33:02.815Z,100894.13
2019-02-18T15:35:30.285Z,100888.34
2019-02-18T15:37:58.249Z,100888.56
2019-02-18T15:40:25.331Z,100881.35
2019-02-18T15:42:52.661Z,100881.55
2019-02-18T15:45:20.034Z,100882.82
2019-02-18T15:47:47.021Z,100881.00
2019-02-18T15:50:14.917Z,100875.45
2019-02-18T15:52:41.929Z,100870.79
2019-02-18T15:55:09.924Z,100866.91
2019-02-18T15:57:36.823Z,100869.62
2019-02-18T16:00:06.552Z,100873.31
2019-02-18T16:02:57.422Z,100865.94
2019-02-18T16:05:24.992Z,100862.45
2019-02-18T16:07:52.298Z,100857.49
2019-02-18T16:10:19.985Z,100860.12
2019-02-18T16:12:50.819Z,100849.65
2019-02-18T16:15:15.962Z,100846.47
2019-02-18T16:17:44.094Z,100848.70
2019-02-18T16:20:11.315Z,100845.03
2019-02-18T16:22:38.702Z,100838.80
2019-02-18T16:25:10.899Z,100839.55
2019-02-18T16:27:38.286Z,100844.34
2019-02-18T16:30:07.731Z,100840.93
2019-02-18T16:32:34.982Z,100843.38
2019-02-18T16:35:02.387Z,100841.81
2019-02-18T16:37:29.698Z,100849.07
2019-02-18T16:39:56.654Z,100836.23
2019-02-18T16:42:23.906Z,100846.30
2019-02-18T16:44:51.598Z,100842.69
2019-02-18T16:47:18.465Z,100840.63
2019-02-18T16:49:45.853Z,100847.26
2019-02-18T16:52:12.933Z,100843.31
2019-02-18T16:54:40.113Z,100833.52
2019-02-18T16:57:07.111Z,100838.80
2019-02-18T16:59:35.077Z,100834.69
2019-02-18T17:02:01.846Z,100837.23
2019-02-18T17:04:29.368Z,100836.45
2019-02-18T17:06:56.340Z,100836.18
2019-02-18T17:09:23.583Z,100830.63
2019-02-18T17:11:50.392Z,100831.03
2019-02-18T17:14:18.166Z,100830.17
2019-02-18T17:16:45.536Z,100829.87
2019-02-18T17:19:12.801Z,100830.56
2019-02-18T17:21:40.055Z,100823.84
2019-02-18T17:24:07.279Z,100820.61
2019-02-18T17:26:35.032Z,100823.91
2019-02-18T17:29:02.487Z,100819.81
2019-02-18T17:31:29.393Z,100816.51
2019-02-18T17:33:57.372Z,100809.97
2019-02-18T17:36:24.074Z,100807.86
2019-02-18T17:38:51.610Z,100807.78
2019-02-18T17:41:19.567Z,100808.44
2019-02-18T17:43:46.634Z,100806.06
2019-02-18T17:46:13.979Z,100795.47
2019-02-18T17:48:41.141Z,100799.24
2019-02-18T17:51:08.594Z,100790.48
2019-02-18T17:53:35.263Z,100784.82
2019-02-18T17:56:03.532Z,100788.84
2019-02-18T17:58:30.711Z,100789.94
2019-02-18T18:00:59.182Z,100780.72
2019-02-18T18:03:27.323Z,100778.83
2019-02-18T18:05:54.450Z,100781.86
2019-02-18T18:08:22.105Z,100772.05
2019-02-18T18:10:49.971Z,100767.70
2019-02-18T18:13:24.951Z,100774.22
2019-02-18T18:15:47.379Z,100768.91
2019-02-18T18:18:14.202Z,100765.13
2019-02-18T18:20:41.895Z,100766.63
2019-02-18T18:23:09.130Z,100760.04
2019-02-18T18:25:36.403Z,100752.64
2019-02-18T18:28:04.010Z,100746.63
2019-02-18T18:30:31.076Z,100745.14
2019-02-18T18:32:57.943Z,100745.65
2019-02-18T18:35:25.671Z,100742.34
2019-02-18T18:37:53.207Z,100740.83
2019-02-18T18:40:20.795Z,100742.81
2019-02-18T18:42:48.862Z,100744.61
2019-02-18T18:45:16.213Z,100746.09
2019-02-18T18:47:43.550Z,100749.92
2019-02-18T18:50:13.239Z,100746.19
2019-02-18T18:52:40.844Z,100746.79
2019-02-18T18:55:08.409Z,100740.38
2019-02-18T18:57:37.497Z,100748.54
2019-02-18T19:00:07.514Z,100748.69
2019-02-18T19:02:37.024Z,100745.73
2019-02-18T19:05:04.602Z,100745.53
2019-02-18T19:07:31.613Z,100753.72
2019-02-18T19:09:58.862Z,100749.37
2019-02-18T19:12:26.330Z,100742.91
2019-02-18T19:14:54.301Z,100749.46
2019-02-18T19:17:21.230Z,100741.41
2019-02-18T19:19:48.998Z,100738.50
2019-02-18T19:22:15.794Z,100745.79
2019-02-18T19:24:44.258Z,100734.26
2019-02-18T19:27:11.744Z,100737.91
2019-02-18T19:29:39.386Z,100731.86
2019-02-18T19:32:07.238Z,100729.13
2019-02-18T19:34:34.533Z,100726.53
2019-02-18T19:37:01.519Z,100730.55
2019-02-18T19:39:29.309Z,100724.91
2019-02-18T19:41:56.625Z,100729.61
2019-02-18T19:44:24.175Z,100740.86
2019-02-18T19:46:51.399Z,100736.68
2019-02-18T19:49:19.622Z,100730.52
2019-02-18T19:51:49.215Z,100729.38
2019-02-18T19:54:16.295Z,100733.55
2019-02-18T19:56:56.320Z,100735.55
2019-02-18T19:59:23.342Z,100734.75
2019-02-18T20:01:50.501Z,100721.48
2019-02-18T20:04:18.947Z,100721.72
2019-02-18T20:06:49.397Z,100721.17
2019-02-18T20:09:16.728Z,100719.83
2019-02-18T20:11:45.886Z,100719.83
2019-02-18T20:14:13.669Z,100723.84
2019-02-18T20:16:46.590Z,100720.13
2019-02-18T20:19:15.213Z,100720.13
2019-02-18T20:21:46.454Z,100720.76
2019-02-18T20:24:13.484Z,100719.70
2019-02-18T20:26:40.663Z,100713.59
2019-02-18T20:29:08.164Z,100710.72
2019-02-18T20:31:35.574Z,100710.72
2019-02-18T20:34:02.898Z,100721.72
2019-02-18T20:36:30.366Z,100721.72
2019-02-18T20:38:58.562Z,100712.48
2019-02-18T20:41:25.998Z,100710.84
2019-02-18T20:43:52.886Z,100710.84
2019-02-18T20:46:31.570Z,100701.19
2019-02-18T20:49:02.930Z,100701.19
2019-02-18T20:51:32.508Z,100704.77
2019-02-18T20:54:01.951Z,100702.52
2019-02-18T20:56:28.839Z,100699.03
2019-02-18T20:58:55.876Z,100707.83
2019-02-18T21:01:22.855Z,100685.75
2019-02-18T21:03:49.676Z,100682.34
2019-02-18T21:06:17.223Z,100682.34
2019-02-18T21:08:44.068Z,100683.07
2019-02-18T21:11:11.074Z,100687.71
2019-02-18T21:13:38.196Z,100679.97
2019-02-18T21:16:06.114Z,100679.97
2019-02-18T21:18:32.860Z,100680.91
2019-02-18T21:20:59.664Z,100678.23
2019-02-18T21:23:28.153Z,100682.33
2019-02-18T21:25:55.520Z,100681.34
2019-02-18T21:28:22.196Z,100681.23
2019-02-18T21:30:57.174Z,100666.27
2019-02-18T21:33:25.844Z,100666.27
2019-02-18T21:35:53.607Z,100674.25
2019-02-18T21:38:36.799Z,100674.08
2019-02-18T21:41:03.617Z,100668.15
2019-02-18T21:43:30.833Z,100662.22
2019-02-18T21:45:58.002Z,100662.22
2019-02-18T21:48:25.979Z,100667.37
2019-02-18T21:50:54.055Z,100666.33
2019-02-18T21:53:20.856Z,100661.80
2019-02-18T21:55:48.514Z,100660.16
2019-02-18T21:58:15.356Z,100654.67
2019-02-18T22:00:43.055Z,100650.80
2019-02-18T22:03:10.339Z,100650.41
2019-02-18T22:05:38.351Z,100647.19
2019-02-18T22:08:05.369Z,100644.95
2019-02-18T22:10:35.302Z,100640.72
2019-02-18T22:13:04.140Z,100646.59
2019-02-18T22:15:31.865Z,100643.20
2019-02-18T22:18:04.578Z,100641.61
2019-02-18T22:20:31.392Z,100650.06
2019-02-18T22:22:58.643Z,100651.23
2019-02-18T22:25:25.837Z,100647.44
2019-02-18T22:27:53.703Z,100648.86
2019-02-18T22:30:21.525Z,100645.97
2019-02-18T22:32:48.770Z,100644.25
2019-02-18T22:35:17.119Z,100636.23
2019-02-18T22:37:46.161Z,100638.69
2019-02-18T22:40:14.771Z,100636.36
2019-02-18T22:42:42.180Z,100634.71
2019-02-18T22:45:09.665Z,100632.26
2019-02-18T22:47:36.932Z,100632.81
2019-02-18T22:50:05.358Z,100634.88
2019-02-18T22:52:32.838Z,100635.31
2019-02-18T22:55:01.977Z,100636.83
2019-02-18T22:57:29.599Z,100635.87
2019-02-18T22:59:56.886Z,100635.87
2019-02-18T23:02:24.300Z,100626.47
2019-02-18T23:04:51.560Z,100626.47
2019-02-18T23:07:18.474Z,100634.02
2019-02-18T23:09:45.586Z,100627.46
2019-02-18T23:12:14.654Z,100629.36
2019-02-18T23:14:50.343Z,100624.01
2019-02-18T23:17:18.364Z,100623.57
2019-02-18T23:19:46.469Z,100615.59
2019-02-18T23:22:14.387Z,100617.88
2019-02-18T23:24:41.201Z,100611.41
2019-02-18T23:27:08.323Z,100604.98
2019-02-18T23:29:35.844Z,100614.07
2019-02-18T23:32:03.190Z,100614.64
2019-02-18T23:34:31.173Z,100609.33
2019-02-18T23:36:58.217Z,100605.30
2019-02-18T23:39:30.176Z,100609.78
2019-02-18T23:41:57.947Z,100609.44
2019-02-18T23:44:25.285Z,100602.59
2019-02-18T23:46:52.743Z,100610.08
2019-02-18T23:49:19.806Z,100614.89
2019-02-18T23:51:47.458Z,100610.41
2019-02-18T23:54:14.792Z,100610.70
2019-02-18T23:56:43.494Z,100607.72
2019-02-18T23:59:10.191Z,100601.28
